sensor_id;sensor_type;location;lat;lon;timestamp;P1;durP1;ratioP1;P2;durP2;ratioP2
28766;SDS011;15921;52.034;20.650;2024-03-23T00:54:29;43.30;;;20.90;;
28766;SDS011;15921;52.034;20.650;2024-03-23T00:56:55;51.35;;;21.88;;
28766;SDS011;15921;52.034;20.650;2024-03-23T00:59:20;43.17;;;21.25;;
28766;SDS011;15921;52.034;20.650;2024-03-23T01:01:47;52.35;;;21.58;;
28766;SDS011;15921;52.034;20.650;2024-03-23T01:04:13;51.15;;;21.33;;
28766;SDS011;15921;52.034;20.650;2024-03-23T01:06:38;46.92;;;20.88;;
28766;SDS011;15921;52.034;20.650;2024-03-23T01:09:04;51.33;;;21.98;;
28766;SDS011;15921;52.034;20.650;2024-03-23T01:11:31;50.47;;;21.85;;
28766;SDS011;15921;52.034;20.650;2024-03-23T01:13:56;47.00;;;21.00;;
28766;SDS011;15921;52.034;20.650;2024-03-23T01:16:22;48.33;;;21.63;;
28766;SDS011;15921;52.034;20.650;2024-03-23T01:18:48;49.25;;;22.20;;
28766;SDS011;15921;52.034;20.650;2024-03-23T01:21:13;49.75;;;22.00;;
28766;SDS011;15921;52.034;20.650;2024-03-23T01:23:39;51.33;;;22.80;;
28766;SDS011;15921;52.034;20.650;2024-03-23T01:26:05;50.67;;;22.77;;
28766;SDS011;15921;52.034;20.650;2024-03-23T01:28:30;50.97;;;22.00;;
28766;SDS011;15921;52.034;20.650;2024-03-23T01:30:56;48.90;;;21.92;;
28766;SDS011;15921;52.034;20.650;2024-03-23T01:33:22;48.97;;;23.63;;
28766;SDS011;15921;52.034;20.650;2024-03-23T01:35:47;55.78;;;24.40;;
28766;SDS011;15921;52.034;20.650;2024-03-23T01:38:13;58.47;;;24.98;;
28766;SDS011;15921;52.034;20.650;2024-03-23T01:40:39;55.38;;;23.23;;
28766;SDS011;15921;52.034;20.650;2024-03-23T01:43:05;53.85;;;24.80;;
28766;SDS011;15921;52.034;20.650;2024-03-23T01:45:33;60.17;;;24.42;;
28766;SDS011;15921;52.034;20.650;2024-03-23T01:47:59;54.25;;;23.50;;
28766;SDS011;15921;52.034;20.650;2024-03-23T01:50:25;54.28;;;23.23;;
28766;SDS011;15921;52.034;20.650;2024-03-23T01:52:52;54.25;;;23.38;;
28766;SDS011;15921;52.034;20.650;2024-03-23T01:55:18;56.45;;;24.52;;
28766;SDS011;15921;52.034;20.650;2024-03-23T01:57:44;56.45;;;24.33;;
28766;SDS011;15921;52.034;20.650;2024-03-23T02:00:10;62.13;;;24.48;;
28766;SDS011;15921;52.034;20.650;2024-03-23T02:05:10;59.10;;;24.17;;
28766;SDS011;15921;52.034;20.650;2024-03-23T02:07:37;63.13;;;25.75;;
28766;SDS011;15921;52.034;20.650;2024-03-23T02:10:04;54.45;;;23.83;;
28766;SDS011;15921;52.034;20.650;2024-03-23T02:12:43;59.83;;;24.98;;
28766;SDS011;15921;52.034;20.650;2024-03-23T02:15:08;59.17;;;24.70;;
28766;SDS011;15921;52.034;20.650;2024-03-23T02:17:34;66.75;;;26.45;;
28766;SDS011;15921;52.034;20.650;2024-03-23T02:20:01;65.70;;;25.70;;
28766;SDS011;15921;52.034;20.650;2024-03-23T02:22:37;57.38;;;25.00;;
28766;SDS011;15921;52.034;20.650;2024-03-23T02:25:06;66.95;;;26.50;;
28766;SDS011;15921;52.034;20.650;2024-03-23T02:27:32;65.55;;;25.85;;
28766;SDS011;15921;52.034;20.650;2024-03-23T02:30:04;66.93;;;26.77;;
28766;SDS011;15921;52.034;20.650;2024-03-23T02:32:30;61.90;;;24.88;;
28766;SDS011;15921;52.034;20.650;2024-03-23T02:34:55;69.38;;;28.80;;
28766;SDS011;15921;52.034;20.650;2024-03-23T02:37:21;68.85;;;26.65;;
28766;SDS011;15921;52.034;20.650;2024-03-23T02:39:47;63.88;;;26.60;;
28766;SDS011;15921;52.034;20.650;2024-03-23T02:42:12;70.50;;;27.92;;
28766;SDS011;15921;52.034;20.650;2024-03-23T02:44:38;64.47;;;26.67;;
28766;SDS011;15921;52.034;20.650;2024-03-23T02:47:04;69.60;;;28.90;;
28766;SDS011;15921;52.034;20.650;2024-03-23T02:49:30;75.80;;;29.15;;
28766;SDS011;15921;52.034;20.650;2024-03-23T02:51:55;69.72;;;27.65;;
28766;SDS011;15921;52.034;20.650;2024-03-23T02:54:21;72.95;;;29.25;;
28766;SDS011;15921;52.034;20.650;2024-03-23T02:56:47;78.65;;;29.48;;
28766;SDS011;15921;52.034;20.650;2024-03-23T02:59:12;68.75;;;28.60;;
28766;SDS011;15921;52.034;20.650;2024-03-23T03:01:38;67.97;;;29.13;;
28766;SDS011;15921;52.034;20.650;2024-03-23T03:04:04;74.60;;;30.52;;
28766;SDS011;15921;52.034;20.650;2024-03-23T03:06:30;81.28;;;30.88;;
28766;SDS011;15921;52.034;20.650;2024-03-23T03:08:56;73.40;;;29.20;;
28766;SDS011;15921;52.034;20.650;2024-03-23T03:11:22;81.28;;;29.67;;
28766;SDS011;15921;52.034;20.650;2024-03-23T03:13:47;71.95;;;29.15;;
28766;SDS011;15921;52.034;20.650;2024-03-23T03:16:13;76.25;;;30.08;;
28766;SDS011;15921;52.034;20.650;2024-03-23T03:18:39;68.00;;;28.83;;
28766;SDS011;15921;52.034;20.650;2024-03-23T03:21:08;73.75;;;28.98;;
28766;SDS011;15921;52.034;20.650;2024-03-23T03:23:36;73.10;;;31.23;;
28766;SDS011;15921;52.034;20.650;2024-03-23T03:26:02;74.63;;;30.50;;
28766;SDS011;15921;52.034;20.650;2024-03-23T03:28:29;73.93;;;29.65;;
28766;SDS011;15921;52.034;20.650;2024-03-23T03:30:56;72.28;;;29.92;;
28766;SDS011;15921;52.034;20.650;2024-03-23T03:33:22;77.13;;;30.90;;
28766;SDS011;15921;52.034;20.650;2024-03-23T03:35:48;77.95;;;30.42;;
28766;SDS011;15921;52.034;20.650;2024-03-23T03:38:14;66.30;;;27.60;;
28766;SDS011;15921;52.034;20.650;2024-03-23T03:40:39;80.20;;;31.48;;
28766;SDS011;15921;52.034;20.650;2024-03-23T03:43:06;76.13;;;32.13;;
28766;SDS011;15921;52.034;20.650;2024-03-23T03:45:32;72.05;;;29.73;;
28766;SDS011;15921;52.034;20.650;2024-03-23T03:47:58;68.72;;;31.02;;
28766;SDS011;15921;52.034;20.650;2024-03-23T03:50:24;78.43;;;31.00;;
28766;SDS011;15921;52.034;20.650;2024-03-23T03:52:50;73.90;;;31.08;;
28766;SDS011;15921;52.034;20.650;2024-03-23T03:55:16;81.80;;;30.75;;
28766;SDS011;15921;52.034;20.650;2024-03-23T03:57:42;76.80;;;32.08;;
28766;SDS011;15921;52.034;20.650;2024-03-23T04:00:07;73.15;;;30.40;;
28766;SDS011;15921;52.034;20.650;2024-03-23T04:02:37;77.75;;;31.80;;
28766;SDS011;15921;52.034;20.650;2024-03-23T04:05:03;81.75;;;31.60;;
28766;SDS011;15921;52.034;20.650;2024-03-23T04:07:29;79.40;;;32.97;;
28766;SDS011;15921;52.034;20.650;2024-03-23T04:09:55;68.07;;;28.98;;
28766;SDS011;15921;52.034;20.650;2024-03-23T04:12:20;76.75;;;32.30;;
28766;SDS011;15921;52.034;20.650;2024-03-23T04:14:46;80.05;;;32.50;;
28766;SDS011;15921;52.034;20.650;2024-03-23T04:17:12;71.40;;;29.85;;
28766;SDS011;15921;52.034;20.650;2024-03-23T04:19:37;73.07;;;32.65;;
28766;SDS011;15921;52.034;20.650;2024-03-23T04:22:04;77.03;;;32.78;;
28766;SDS011;15921;52.034;20.650;2024-03-23T04:24:30;80.30;;;33.65;;
28766;SDS011;15921;52.034;20.650;2024-03-23T04:26:55;77.90;;;32.30;;
28766;SDS011;15921;52.034;20.650;2024-03-23T04:29:21;79.88;;;31.50;;
28766;SDS011;15921;52.034;20.650;2024-03-23T04:31:47;74.10;;;31.65;;
28766;SDS011;15921;52.034;20.650;2024-03-23T04:34:13;83.68;;;32.35;;
28766;SDS011;15921;52.034;20.650;2024-03-23T04:36:39;82.97;;;33.38;;
28766;SDS011;15921;52.034;20.650;2024-03-23T04:39:05;74.65;;;31.60;;
28766;SDS011;15921;52.034;20.650;2024-03-23T04:41:33;74.45;;;31.75;;
28766;SDS011;15921;52.034;20.650;2024-03-23T04:44:00;79.57;;;32.05;;
28766;SDS011;15921;52.034;20.650;2024-03-23T04:46:26;75.03;;;30.10;;
28766;SDS011;15921;52.034;20.650;2024-03-23T04:48:51;70.38;;;29.58;;
28766;SDS011;15921;52.034;20.650;2024-03-23T04:51:21;77.55;;;31.30;;
28766;SDS011;15921;52.034;20.650;2024-03-23T04:53:47;74.68;;;30.05;;
28766;SDS011;15921;52.034;20.650;2024-03-23T04:56:13;74.47;;;30.17;;
28766;SDS011;15921;52.034;20.650;2024-03-23T04:58:40;72.57;;;29.90;;
28766;SDS011;15921;52.034;20.650;2024-03-23T05:01:05;78.22;;;29.85;;
28766;SDS011;15921;52.034;20.650;2024-03-23T05:03:31;72.85;;;30.58;;
28766;SDS011;15921;52.034;20.650;2024-03-23T05:05:57;71.88;;;30.75;;
28766;SDS011;15921;52.034;20.650;2024-03-23T05:08:23;72.75;;;30.33;;
28766;SDS011;15921;52.034;20.650;2024-03-23T05:10:49;70.78;;;31.05;;
28766;SDS011;15921;52.034;20.650;2024-03-23T05:13:15;68.88;;;29.77;;
28766;SDS011;15921;52.034;20.650;2024-03-23T05:15:40;71.63;;;30.35;;
28766;SDS011;15921;52.034;20.650;2024-03-23T05:18:06;60.78;;;27.40;;
28766;SDS011;15921;52.034;20.650;2024-03-23T05:20:32;61.88;;;29.13;;
28766;SDS011;15921;52.034;20.650;2024-03-23T05:22:58;66.18;;;27.63;;
28766;SDS011;15921;52.034;20.650;2024-03-23T05:25:23;66.40;;;27.60;;
28766;SDS011;15921;52.034;20.650;2024-03-23T05:27:49;61.13;;;27.13;;
28766;SDS011;15921;52.034;20.650;2024-03-23T05:30:15;63.65;;;28.05;;
28766;SDS011;15921;52.034;20.650;2024-03-23T05:32:40;58.42;;;27.42;;
28766;SDS011;15921;52.034;20.650;2024-03-23T05:35:07;66.45;;;27.88;;
28766;SDS011;15921;52.034;20.650;2024-03-23T05:37:35;61.97;;;27.75;;
28766;SDS011;15921;52.034;20.650;2024-03-23T05:40:02;67.25;;;27.98;;
28766;SDS011;15921;52.034;20.650;2024-03-23T05:42:28;60.63;;;27.83;;
28766;SDS011;15921;52.034;20.650;2024-03-23T05:44:54;58.20;;;26.88;;
28766;SDS011;15921;52.034;20.650;2024-03-23T05:47:20;63.88;;;28.40;;
28766;SDS011;15921;52.034;20.650;2024-03-23T05:49:46;62.53;;;28.48;;
28766;SDS011;15921;52.034;20.650;2024-03-23T05:52:12;58.97;;;26.38;;
28766;SDS011;15921;52.034;20.650;2024-03-23T05:54:38;59.85;;;25.67;;
28766;SDS011;15921;52.034;20.650;2024-03-23T05:57:04;62.70;;;28.50;;
28766;SDS011;15921;52.034;20.650;2024-03-23T05:59:32;65.78;;;27.70;;
28766;SDS011;15921;52.034;20.650;2024-03-23T06:01:58;57.28;;;26.30;;
28766;SDS011;15921;52.034;20.650;2024-03-23T06:04:24;53.03;;;24.83;;
28766;SDS011;15921;52.034;20.650;2024-03-23T06:06:51;54.30;;;25.55;;
28766;SDS011;15921;52.034;20.650;2024-03-23T06:09:19;60.78;;;26.85;;
28766;SDS011;15921;52.034;20.650;2024-03-23T06:11:45;58.38;;;26.08;;
28766;SDS011;15921;52.034;20.650;2024-03-23T06:14:11;58.95;;;27.05;;
28766;SDS011;15921;52.034;20.650;2024-03-23T06:16:37;61.45;;;26.35;;
28766;SDS011;15921;52.034;20.650;2024-03-23T06:19:02;69.43;;;28.70;;
28766;SDS011;15921;52.034;20.650;2024-03-23T06:21:29;60.05;;;25.83;;
28766;SDS011;15921;52.034;20.650;2024-03-23T06:23:55;60.78;;;26.48;;
28766;SDS011;15921;52.034;20.650;2024-03-23T06:26:21;66.63;;;27.00;;
28766;SDS011;15921;52.034;20.650;2024-03-23T06:28:47;56.20;;;24.90;;
28766;SDS011;15921;52.034;20.650;2024-03-23T06:31:13;63.88;;;26.67;;
28766;SDS011;15921;52.034;20.650;2024-03-23T06:33:39;58.60;;;25.80;;
28766;SDS011;15921;52.034;20.650;2024-03-23T06:36:08;65.10;;;27.98;;
28766;SDS011;15921;52.034;20.650;2024-03-23T06:38:35;60.00;;;25.17;;
28766;SDS011;15921;52.034;20.650;2024-03-23T06:41:04;62.78;;;26.50;;
28766;SDS011;15921;52.034;20.650;2024-03-23T06:43:30;57.88;;;24.95;;
28766;SDS011;15921;52.034;20.650;2024-03-23T06:45:56;54.25;;;25.27;;
28766;SDS011;15921;52.034;20.650;2024-03-23T06:48:22;61.88;;;26.67;;
28766;SDS011;15921;52.034;20.650;2024-03-23T06:50:48;52.97;;;25.00;;
28766;SDS011;15921;52.034;20.650;2024-03-23T06:53:14;50.15;;;23.38;;
28766;SDS011;15921;52.034;20.650;2024-03-23T06:55:40;55.65;;;24.08;;
28766;SDS011;15921;52.034;20.650;2024-03-23T06:58:07;58.20;;;24.58;;
28766;SDS011;15921;52.034;20.650;2024-03-23T07:00:33;51.22;;;23.50;;
28766;SDS011;15921;52.034;20.650;2024-03-23T07:02:59;49.63;;;23.45;;
28766;SDS011;15921;52.034;20.650;2024-03-23T07:05:25;51.15;;;24.85;;
28766;SDS011;15921;52.034;20.650;2024-03-23T07:07:51;43.78;;;22.27;;
28766;SDS011;15921;52.034;20.650;2024-03-23T07:10:16;49.65;;;23.58;;
28766;SDS011;15921;52.034;20.650;2024-03-23T07:12:42;52.33;;;22.70;;
28766;SDS011;15921;52.034;20.650;2024-03-23T07:15:08;48.28;;;21.63;;
28766;SDS011;15921;52.034;20.650;2024-03-23T07:17:34;48.85;;;22.27;;
28766;SDS011;15921;52.034;20.650;2024-03-23T07:20:01;47.15;;;22.30;;
28766;SDS011;15921;52.034;20.650;2024-03-23T07:22:29;46.63;;;22.45;;
28766;SDS011;15921;52.034;20.650;2024-03-23T07:24:55;46.30;;;22.42;;
28766;SDS011;15921;52.034;20.650;2024-03-23T07:27:21;47.58;;;22.17;;
28766;SDS011;15921;52.034;20.650;2024-03-23T07:29:48;44.58;;;22.52;;
28766;SDS011;15921;52.034;20.650;2024-03-23T07:32:14;48.08;;;21.30;;
28766;SDS011;15921;52.034;20.650;2024-03-23T07:34:40;40.03;;;20.00;;
28766;SDS011;15921;52.034;20.650;2024-03-23T07:37:05;43.55;;;21.23;;
28766;SDS011;15921;52.034;20.650;2024-03-23T07:39:31;43.60;;;22.30;;
28766;SDS011;15921;52.034;20.650;2024-03-23T07:41:59;38.05;;;20.30;;
28766;SDS011;15921;52.034;20.650;2024-03-23T07:44:24;40.55;;;20.05;;
28766;SDS011;15921;52.034;20.650;2024-03-23T07:46:50;40.50;;;20.00;;
28766;SDS011;15921;52.034;20.650;2024-03-23T07:49:15;32.47;;;17.83;;
28766;SDS011;15921;52.034;20.650;2024-03-23T07:51:41;37.55;;;18.85;;
28766;SDS011;15921;52.034;20.650;2024-03-23T07:54:07;38.30;;;17.63;;
28766;SDS011;15921;52.034;20.650;2024-03-23T07:56:33;36.88;;;18.05;;
28766;SDS011;15921;52.034;20.650;2024-03-23T07:58:59;37.17;;;18.45;;
28766;SDS011;15921;52.034;20.650;2024-03-23T08:01:25;32.30;;;17.88;;
28766;SDS011;15921;52.034;20.650;2024-03-23T08:03:50;36.45;;;16.75;;
28766;SDS011;15921;52.034;20.650;2024-03-23T08:06:17;38.63;;;18.55;;
28766;SDS011;15921;52.034;20.650;2024-03-23T08:08:45;34.55;;;16.63;;
28766;SDS011;15921;52.034;20.650;2024-03-23T08:11:14;33.08;;;16.00;;
28766;SDS011;15921;52.034;20.650;2024-03-23T08:13:40;33.13;;;15.63;;
28766;SDS011;15921;52.034;20.650;2024-03-23T08:16:07;26.98;;;14.70;;
28766;SDS011;15921;52.034;20.650;2024-03-23T08:18:37;35.70;;;15.30;;
28766;SDS011;15921;52.034;20.650;2024-03-23T08:21:03;37.35;;;18.10;;
28766;SDS011;15921;52.034;20.650;2024-03-23T08:23:31;32.45;;;15.60;;
28766;SDS011;15921;52.034;20.650;2024-03-23T08:26:07;36.08;;;17.75;;
28766;SDS011;15921;52.034;20.650;2024-03-23T08:28:34;35.22;;;15.45;;
28766;SDS011;15921;52.034;20.650;2024-03-23T08:31:04;32.38;;;15.73;;
28766;SDS011;15921;52.034;20.650;2024-03-23T08:33:32;30.30;;;16.17;;
28766;SDS011;15921;52.034;20.650;2024-03-23T08:36:04;28.02;;;14.30;;
28766;SDS011;15921;52.034;20.650;2024-03-23T08:38:31;28.23;;;13.93;;
28766;SDS011;15921;52.034;20.650;2024-03-23T08:41:02;29.27;;;14.70;;
28766;SDS011;15921;52.034;20.650;2024-03-23T08:43:29;26.10;;;13.30;;
28766;SDS011;15921;52.034;20.650;2024-03-23T08:46:11;27.42;;;13.55;;
28766;SDS011;15921;52.034;20.650;2024-03-23T08:48:40;26.92;;;13.70;;
28766;SDS011;15921;52.034;20.650;2024-03-23T08:51:10;22.58;;;12.25;;
28766;SDS011;15921;52.034;20.650;2024-03-23T08:53:37;23.83;;;12.35;;
28766;SDS011;15921;52.034;20.650;2024-03-23T08:56:04;25.40;;;12.90;;
28766;SDS011;15921;52.034;20.650;2024-03-23T08:58:32;23.55;;;11.80;;
28766;SDS011;15921;52.034;20.650;2024-03-23T09:01:08;18.67;;;10.95;;
28766;SDS011;15921;52.034;20.650;2024-03-23T09:03:34;21.48;;;11.02;;
28766;SDS011;15921;52.034;20.650;2024-03-23T09:06:02;24.95;;;12.00;;
28766;SDS011;15921;52.034;20.650;2024-03-23T09:08:35;21.52;;;11.55;;
28766;SDS011;15921;52.034;20.650;2024-03-23T09:11:05;18.10;;;10.85;;
28766;SDS011;15921;52.034;20.650;2024-03-23T09:13:35;24.92;;;11.90;;
28766;SDS011;15921;52.034;20.650;2024-03-23T09:16:02;21.23;;;11.38;;
28766;SDS011;15921;52.034;20.650;2024-03-23T09:18:32;24.02;;;11.48;;
28766;SDS011;15921;52.034;20.650;2024-03-23T09:21:00;21.05;;;11.65;;
28766;SDS011;15921;52.034;20.650;2024-03-23T09:23:26;19.60;;;11.00;;
28766;SDS011;15921;52.034;20.650;2024-03-23T09:25:52;19.88;;;10.23;;
28766;SDS011;15921;52.034;20.650;2024-03-23T09:28:17;23.70;;;11.75;;
28766;SDS011;15921;52.034;20.650;2024-03-23T09:30:43;19.23;;;10.32;;
28766;SDS011;15921;52.034;20.650;2024-03-23T09:33:09;20.88;;;10.60;;
28766;SDS011;15921;52.034;20.650;2024-03-23T09:35:36;20.58;;;11.82;;
28766;SDS011;15921;52.034;20.650;2024-03-23T09:38:06;16.40;;;9.65;;
28766;SDS011;15921;52.034;20.650;2024-03-23T09:40:35;19.20;;;11.07;;
28766;SDS011;15921;52.034;20.650;2024-03-23T09:43:07;19.98;;;10.20;;
28766;SDS011;15921;52.034;20.650;2024-03-23T09:45:35;19.40;;;10.27;;
28766;SDS011;15921;52.034;20.650;2024-03-23T09:48:06;18.23;;;9.75;;
28766;SDS011;15921;52.034;20.650;2024-03-23T09:50:33;20.55;;;10.55;;
28766;SDS011;15921;52.034;20.650;2024-03-23T09:53:00;22.85;;;10.80;;
28766;SDS011;15921;52.034;20.650;2024-03-23T09:55:26;18.20;;;10.02;;
28766;SDS011;15921;52.034;20.650;2024-03-23T09:57:52;22.48;;;11.45;;
28766;SDS011;15921;52.034;20.650;2024-03-23T10:00:18;20.58;;;10.90;;
28766;SDS011;15921;52.034;20.650;2024-03-23T10:02:43;22.27;;;11.40;;
28766;SDS011;15921;52.034;20.650;2024-03-23T10:05:22;25.13;;;10.65;;
28766;SDS011;15921;52.034;20.650;2024-03-23T10:07:49;22.65;;;11.38;;
28766;SDS011;15921;52.034;20.650;2024-03-23T10:10:15;18.33;;;10.07;;
28766;SDS011;15921;52.034;20.650;2024-03-23T10:12:48;19.15;;;10.55;;
28766;SDS011;15921;52.034;20.650;2024-03-23T10:15:22;22.35;;;10.05;;
28766;SDS011;15921;52.034;20.650;2024-03-23T10:17:49;22.15;;;11.13;;
28766;SDS011;15921;52.034;20.650;2024-03-23T10:20:22;18.77;;;10.20;;
28766;SDS011;15921;52.034;20.650;2024-03-23T10:22:51;20.88;;;10.75;;
28766;SDS011;15921;52.034;20.650;2024-03-23T10:25:17;18.75;;;9.98;;
28766;SDS011;15921;52.034;20.650;2024-03-23T10:27:58;21.10;;;10.52;;
28766;SDS011;15921;52.034;20.650;2024-03-23T10:30:28;17.73;;;8.88;;
28766;SDS011;15921;52.034;20.650;2024-03-23T10:33:09;22.20;;;9.88;;
28766;SDS011;15921;52.034;20.650;2024-03-23T10:35:39;17.42;;;10.02;;
28766;SDS011;15921;52.034;20.650;2024-03-23T10:38:05;16.98;;;9.02;;
28766;SDS011;15921;52.034;20.650;2024-03-23T10:40:33;14.88;;;8.45;;
28766;SDS011;15921;52.034;20.650;2024-03-23T10:43:00;16.50;;;8.60;;
28766;SDS011;15921;52.034;20.650;2024-03-23T10:45:28;15.43;;;8.43;;
28766;SDS011;15921;52.034;20.650;2024-03-23T10:47:54;15.15;;;8.55;;
28766;SDS011;15921;52.034;20.650;2024-03-23T10:50:21;14.07;;;8.48;;
28766;SDS011;15921;52.034;20.650;2024-03-23T10:52:47;16.27;;;8.00;;
28766;SDS011;15921;52.034;20.650;2024-03-23T10:55:15;17.88;;;8.45;;
28766;SDS011;15921;52.034;20.650;2024-03-23T10:57:45;15.82;;;8.23;;
28766;SDS011;15921;52.034;20.650;2024-03-23T11:00:17;14.05;;;8.40;;
28766;SDS011;15921;52.034;20.650;2024-03-23T11:02:43;15.25;;;8.23;;
28766;SDS011;15921;52.034;20.650;2024-03-23T11:07:53;12.45;;;7.40;;
28766;SDS011;15921;52.034;20.650;2024-03-23T11:12:52;14.70;;;7.32;;
28766;SDS011;15921;52.034;20.650;2024-03-23T11:15:18;15.43;;;8.77;;
28766;SDS011;15921;52.034;20.650;2024-03-23T11:18:03;17.23;;;8.98;;
28766;SDS011;15921;52.034;20.650;2024-03-23T11:20:33;13.95;;;8.25;;
28766;SDS011;15921;52.034;20.650;2024-03-23T11:23:00;15.40;;;7.95;;
28766;SDS011;15921;52.034;20.650;2024-03-23T11:25:26;14.88;;;7.70;;
28766;SDS011;15921;52.034;20.650;2024-03-23T11:27:53;15.93;;;9.68;;
28766;SDS011;15921;52.034;20.650;2024-03-23T11:32:52;16.38;;;8.88;;
28766;SDS011;15921;52.034;20.650;2024-03-23T11:35:29;14.70;;;9.35;;
28766;SDS011;15921;52.034;20.650;2024-03-23T11:38:08;13.85;;;8.13;;
28766;SDS011;15921;52.034;20.650;2024-03-23T11:40:39;13.85;;;8.43;;
28766;SDS011;15921;52.034;20.650;2024-03-23T11:43:06;14.05;;;7.90;;
28766;SDS011;15921;52.034;20.650;2024-03-23T11:45:34;16.90;;;8.75;;
28766;SDS011;15921;52.034;20.650;2024-03-23T11:48:02;14.80;;;8.25;;
28766;SDS011;15921;52.034;20.650;2024-03-23T11:50:48;15.32;;;8.57;;
28766;SDS011;15921;52.034;20.650;2024-03-23T11:53:16;14.57;;;9.30;;
28766;SDS011;15921;52.034;20.650;2024-03-23T11:55:47;18.40;;;9.30;;
28766;SDS011;15921;52.034;20.650;2024-03-23T11:58:15;15.93;;;9.10;;
28766;SDS011;15921;52.034;20.650;2024-03-23T12:00:42;12.93;;;8.18;;
28766;SDS011;15921;52.034;20.650;2024-03-23T12:03:14;14.63;;;8.82;;
28766;SDS011;15921;52.034;20.650;2024-03-23T12:05:41;14.50;;;8.10;;
28766;SDS011;15921;52.034;20.650;2024-03-23T12:08:15;15.75;;;8.70;;
28766;SDS011;15921;52.034;20.650;2024-03-23T12:13:39;13.80;;;8.35;;
28766;SDS011;15921;52.034;20.650;2024-03-23T12:18:49;12.98;;;7.97;;
28766;SDS011;15921;52.034;20.650;2024-03-23T12:21:16;13.65;;;7.97;;
28766;SDS011;15921;52.034;20.650;2024-03-23T12:23:42;12.95;;;8.23;;
28766;SDS011;15921;52.034;20.650;2024-03-23T12:26:10;11.55;;;6.88;;
28766;SDS011;15921;52.034;20.650;2024-03-23T12:28:40;14.93;;;8.15;;
28766;SDS011;15921;52.034;20.650;2024-03-23T12:31:05;17.67;;;7.55;;
28766;SDS011;15921;52.034;20.650;2024-03-23T12:33:31;11.80;;;7.38;;
28766;SDS011;15921;52.034;20.650;2024-03-23T12:35:57;12.20;;;7.50;;
28766;SDS011;15921;52.034;20.650;2024-03-23T12:38:22;16.80;;;8.23;;
28766;SDS011;15921;52.034;20.650;2024-03-23T12:40:48;15.85;;;7.47;;
28766;SDS011;15921;52.034;20.650;2024-03-23T12:43:14;11.35;;;7.43;;
28766;SDS011;15921;52.034;20.650;2024-03-23T12:45:40;12.75;;;7.38;;
28766;SDS011;15921;52.034;20.650;2024-03-23T12:48:06;26.52;;;8.43;;
28766;SDS011;15921;52.034;20.650;2024-03-23T12:50:32;14.43;;;6.85;;
28766;SDS011;15921;52.034;20.650;2024-03-23T12:52:58;11.48;;;6.75;;
28766;SDS011;15921;52.034;20.650;2024-03-23T12:55:24;16.98;;;7.65;;
28766;SDS011;15921;52.034;20.650;2024-03-23T12:57:50;12.95;;;6.85;;
28766;SDS011;15921;52.034;20.650;2024-03-23T13:00:15;13.05;;;7.57;;
28766;SDS011;15921;52.034;20.650;2024-03-23T13:02:42;11.70;;;6.68;;
28766;SDS011;15921;52.034;20.650;2024-03-23T13:05:07;11.95;;;6.85;;
28766;SDS011;15921;52.034;20.650;2024-03-23T13:07:36;11.57;;;6.47;;
28766;SDS011;15921;52.034;20.650;2024-03-23T13:10:03;13.25;;;7.07;;
28766;SDS011;15921;52.034;20.650;2024-03-23T13:12:31;15.07;;;7.20;;
28766;SDS011;15921;52.034;20.650;2024-03-23T13:14:57;13.30;;;7.78;;
28766;SDS011;15921;52.034;20.650;2024-03-23T13:17:24;13.95;;;6.95;;
28766;SDS011;15921;52.034;20.650;2024-03-23T13:19:50;12.32;;;6.82;;
28766;SDS011;15921;52.034;20.650;2024-03-23T13:22:16;14.05;;;7.90;;
28766;SDS011;15921;52.034;20.650;2024-03-23T13:24:41;10.38;;;7.18;;
28766;SDS011;15921;52.034;20.650;2024-03-23T13:27:07;13.57;;;7.72;;
28766;SDS011;15921;52.034;20.650;2024-03-23T13:29:34;12.90;;;7.55;;
28766;SDS011;15921;52.034;20.650;2024-03-23T13:32:00;11.30;;;7.18;;
28766;SDS011;15921;52.034;20.650;2024-03-23T13:34:26;13.30;;;7.28;;
28766;SDS011;15921;52.034;20.650;2024-03-23T13:36:53;11.95;;;7.50;;
28766;SDS011;15921;52.034;20.650;2024-03-23T13:39:19;12.18;;;7.15;;
28766;SDS011;15921;52.034;20.650;2024-03-23T13:41:45;15.95;;;7.68;;
28766;SDS011;15921;52.034;20.650;2024-03-23T13:44:12;15.18;;;7.13;;
28766;SDS011;15921;52.034;20.650;2024-03-23T13:46:39;15.48;;;6.82;;
28766;SDS011;15921;52.034;20.650;2024-03-23T13:49:07;14.93;;;7.82;;
28766;SDS011;15921;52.034;20.650;2024-03-23T13:51:49;15.68;;;7.60;;
28766;SDS011;15921;52.034;20.650;2024-03-23T13:54:15;14.10;;;7.97;;
28766;SDS011;15921;52.034;20.650;2024-03-23T13:56:41;13.68;;;7.80;;
28766;SDS011;15921;52.034;20.650;2024-03-23T13:59:07;12.68;;;8.32;;
28766;SDS011;15921;52.034;20.650;2024-03-23T14:01:32;12.52;;;7.70;;
28766;SDS011;15921;52.034;20.650;2024-03-23T14:03:58;14.75;;;8.85;;
28766;SDS011;15921;52.034;20.650;2024-03-23T14:06:24;12.30;;;7.60;;
28766;SDS011;15921;52.034;20.650;2024-03-23T14:08:51;15.15;;;8.55;;
28766;SDS011;15921;52.034;20.650;2024-03-23T14:11:17;25.67;;;8.65;;
28766;SDS011;15921;52.034;20.650;2024-03-23T14:13:44;12.95;;;8.20;;
28766;SDS011;15921;52.034;20.650;2024-03-23T14:16:09;17.70;;;7.38;;
28766;SDS011;15921;52.034;20.650;2024-03-23T14:18:35;15.27;;;7.43;;
28766;SDS011;15921;52.034;20.650;2024-03-23T14:21:01;13.10;;;7.85;;
28766;SDS011;15921;52.034;20.650;2024-03-23T14:23:28;14.55;;;8.70;;
28766;SDS011;15921;52.034;20.650;2024-03-23T14:25:55;18.05;;;9.73;;
28766;SDS011;15921;52.034;20.650;2024-03-23T14:28:21;18.75;;;10.75;;
28766;SDS011;15921;52.034;20.650;2024-03-23T14:30:48;17.25;;;10.80;;
28766;SDS011;15921;52.034;20.650;2024-03-23T14:33:17;18.88;;;11.23;;
28766;SDS011;15921;52.034;20.650;2024-03-23T14:35:51;19.67;;;9.70;;
28766;SDS011;15921;52.034;20.650;2024-03-23T14:38:18;17.15;;;9.65;;
28766;SDS011;15921;52.034;20.650;2024-03-23T14:40:44;19.20;;;10.63;;
28766;SDS011;15921;52.034;20.650;2024-03-23T14:43:10;15.75;;;9.60;;
28766;SDS011;15921;52.034;20.650;2024-03-23T14:45:35;18.25;;;8.85;;
28766;SDS011;15921;52.034;20.650;2024-03-23T14:48:02;16.05;;;8.20;;
28766;SDS011;15921;52.034;20.650;2024-03-23T14:50:27;16.35;;;9.23;;
28766;SDS011;15921;52.034;20.650;2024-03-23T14:52:54;15.20;;;9.13;;
28766;SDS011;15921;52.034;20.650;2024-03-23T14:55:19;16.70;;;9.90;;
28766;SDS011;15921;52.034;20.650;2024-03-23T14:57:45;16.55;;;9.30;;
28766;SDS011;15921;52.034;20.650;2024-03-23T15:00:11;16.33;;;9.50;;
28766;SDS011;15921;52.034;20.650;2024-03-23T15:02:37;17.92;;;10.23;;
28766;SDS011;15921;52.034;20.650;2024-03-23T15:05:04;20.17;;;11.15;;
28766;SDS011;15921;52.034;20.650;2024-03-23T15:07:33;28.95;;;12.93;;
28766;SDS011;15921;52.034;20.650;2024-03-23T15:09:58;26.30;;;14.32;;
28766;SDS011;15921;52.034;20.650;2024-03-23T15:12:24;30.65;;;14.00;;
28766;SDS011;15921;52.034;20.650;2024-03-23T15:14:50;33.55;;;15.93;;
28766;SDS011;15921;52.034;20.650;2024-03-23T15:17:15;36.97;;;16.27;;
28766;SDS011;15921;52.034;20.650;2024-03-23T15:19:41;43.15;;;18.55;;
28766;SDS011;15921;52.034;20.650;2024-03-23T15:22:07;47.17;;;19.50;;